Time;durP1;ratioP1;P1;durP2;ratioP2;P2;SDS_P1;SDS_P2;PMS_P1;PMS_P2;Temp;Humidity;BMP_temperature;BMP_pressure;BME280_temperature;BME280_humidity;BME280_pressure;Samples;Min_cycle;Max_cycle;Signal;HPM_P1;HPM_P2
2022/07/20 00:00:39;;;;;;;6.50;2.83;;;;;;;27.66;28.12;100367.47;5028988;28;20030;-67
2022/07/20 00:03:12;;;;;;;5.50;2.72;;;;;;;27.71;27.88;100373.72;5026163;28;20072;-67
2022/07/20 00:05:38;;;;;;;3.53;2.30;;;;;;;27.88;27.61;100367.25;5028670;28;20417;-67
2022/07/20 00:08:04;;;;;;;3.88;2.42;;;;;;;27.93;27.68;100369.97;5028098;28;20041;-68
2022/07/20 00:13:15;;;;;;;4.43;2.58;;;;;;;27.75;28.17;100372.09;5027702;28;20072;-67
2022/07/20 00:15:41;;;;;;;4.85;2.67;;;;;;;27.84;27.65;100366.16;5029148;28;20064;-67
2022/07/20 00:18:07;;;;;;;3.25;2.45;;;;;;;27.84;28.04;100366.16;5030585;28;20064;-68
2022/07/20 00:20:33;;;;;;;2.60;2.10;;;;;;;27.68;28.21;100357.16;5032595;28;20029;-68
2022/07/20 00:22:58;;;;;;;3.90;2.75;;;;;;;27.42;29.62;100367.16;5030784;28;20080;-68
2022/07/20 00:25:25;;;;;;;4.85;2.20;;;;;;;27.19;29.35;100369.25;5031000;28;20460;-67
2022/07/20 00:27:50;;;;;;;4.95;2.80;;;;;;;26.96;30.07;100365.06;5012646;28;20041;-67
2022/07/20 00:30:15;;;;;;;3.75;2.47;;;;;;;27.09;29.23;100359.13;5030291;28;20025;-68
2022/07/20 00:32:42;;;;;;;5.18;2.40;;;;;;;27.18;29.15;100362.16;5031003;28;20061;-68
2022/07/20 00:35:09;;;;;;;4.15;2.83;;;;;;;27.16;29.55;100358.09;5031322;28;20569;-68
2022/07/20 00:37:35;;;;;;;3.47;2.20;;;;;;;27.06;29.70;100358.88;5030754;28;20048;-67
2022/07/20 00:40:00;;;;;;;6.05;2.60;;;;;;;26.93;29.91;100354.72;5037228;28;20034;-67
2022/07/20 00:42:26;;;;;;;4.25;2.40;;;;;;;26.80;30.33;100361.47;5030853;28;20033;-68
2022/07/20 00:44:51;;;;;;;5.00;2.40;;;;;;;26.70;30.25;100366.84;5031178;28;20112;-68
2022/07/20 00:47:17;;;;;;;4.07;2.63;;;;;;;26.60;30.34;100366.75;5030451;28;20068;-67
2022/07/20 00:49:42;;;;;;;5.22;2.28;;;;;;;26.51;30.15;100360.19;5028616;28;20284;-67
2022/07/20 00:52:08;;;;;;;5.03;2.45;;;;;;;26.39;30.55;100363.09;5028051;28;20061;-68
2022/07/20 00:54:33;;;;;;;3.75;2.78;;;;;;;26.31;31.11;100361.66;5028029;28;20033;-67
2022/07/20 00:56:59;;;;;;;4.38;2.50;;;;;;;26.37;30.45;100362.53;5028101;28;20034;-67
2022/07/20 00:59:25;;;;;;;4.15;2.28;;;;;;;26.35;30.30;100364.69;5028433;28;20040;-67
2022/07/20 01:01:50;;;;;;;4.38;2.70;;;;;;;26.24;31.01;100361.06;5026472;28;20030;-67
2022/07/20 01:04:15;;;;;;;4.13;3.05;;;;;;;26.13;31.45;100367.50;5027010;28;20370;-68
2022/07/20 01:06:41;;;;;;;5.22;2.97;;;;;;;26.03;31.25;100369.06;5027548;28;20041;-67
2022/07/20 01:09:06;;;;;;;5.18;2.80;;;;;;;26.12;31.12;100363.16;5008801;28;20608;-67
2022/07/20 01:11:33;;;;;;;4.55;2.90;;;;;;;26.13;30.80;100365.63;5010651;28;20108;-67
2022/07/20 01:14:07;;;;;;;5.45;3.13;;;;;;;26.48;30.25;100361.50;5026977;28;20056;-67
2022/07/20 01:16:33;;;;;;;4.93;2.90;;;;;;;26.73;29.90;100355.44;5007844;28;20041;-68
2022/07/20 01:18:59;;;;;;;5.80;3.15;;;;;;;26.82;29.78;100362.00;5008217;28;20068;-67
2022/07/20 01:21:25;;;;;;;4.65;2.70;;;;;;;26.88;29.56;100355.50;5010115;28;20042;-67
2022/07/20 01:23:50;;;;;;;3.88;2.55;;;;;;;26.90;29.54;100356.06;5007251;28;20430;-69
2022/07/20 01:26:19;;;;;;;4.60;2.88;;;;;;;26.94;29.54;100350.13;5007746;28;20042;-68
2022/07/20 01:28:45;;;;;;;5.50;2.90;;;;;;;26.94;29.65;100342.00;4989716;28;20034;-68
2022/07/20 01:31:11;;;;;;;5.20;2.80;;;;;;;26.81;29.59;100337.84;4990594;28;20037;-67
2022/07/20 01:33:36;;;;;;;4.65;2.72;;;;;;;26.72;29.67;100334.00;5007003;28;20034;-68
2022/07/20 01:36:02;;;;;;;4.13;2.67;;;;;;;26.60;30.27;100336.94;5008239;28;20026;-68
2022/07/20 01:38:27;;;;;;;3.85;2.80;;;;;;;26.57;30.20;100346.41;5007975;28;20220;-68
2022/07/20 01:40:53;;;;;;;6.63;3.40;;;;;;;26.48;30.48;100334.38;5006107;28;20026;-68
2022/07/20 01:43:18;;;;;;;7.95;4.57;;;;;;;26.38;30.60;100334.34;5008648;28;20285;-68
2022/07/20 01:45:43;;;;;;;9.37;4.93;;;;;;;26.24;31.38;100342.94;5007689;28;20136;-67
2022/07/20 01:48:09;;;;;;;9.25;5.03;;;;;;;26.09;31.65;100339.28;5007311;28;20281;-68
2022/07/20 01:50:34;;;;;;;8.05;3.40;;;;;;;25.93;31.89;100333.72;5008319;28;20160;-68
2022/07/20 01:52:59;;;;;;;5.15;3.28;;;;;;;25.72;32.63;100332.72;5005429;28;20099;-67
2022/07/20 01:55:25;;;;;;;5.35;3.10;;;;;;;25.56;33.69;100326.34;5007780;28;20034;-67
2022/07/20 01:57:50;;;;;;;6.22;2.90;;;;;;;25.51;32.84;100339.84;5006810;28;20046;-67
2022/07/20 02:00:17;;;;;;;3.40;2.45;;;;;;;25.43;32.79;100332.16;5007172;28;20030;-68
2022/07/20 02:02:42;;;;;;;3.72;2.58;;;;;;;25.41;32.79;100334.31;5004900;28;20542;-69
2022/07/20 02:05:09;;;;;;;5.38;3.13;;;;;;;25.37;33.00;100323.19;4990002;28;20041;-67
2022/07/20 02:07:35;;;;;;;3.35;2.40;;;;;;;25.31;33.10;100334.19;5006996;28;20030;-68
2022/07/20 02:10:01;;;;;;;6.32;2.90;;;;;;;25.25;33.70;100333.34;5004829;28;20061;-67
2022/07/20 02:12:26;;;;;;;7.00;3.40;;;;;;;25.09;34.79;100340.41;5005365;28;20494;-68
2022/07/20 02:14:51;;;;;;;5.00;3.22;;;;;;;25.00;34.67;100336.50;5000832;28;20034;-67
2022/07/20 02:17:16;;;;;;;5.10;3.00;;;;;;;24.99;33.89;100327.59;5006693;28;20064;-68
2022/07/20 02:19:42;;;;;;;4.43;2.83;;;;;;;24.96;34.34;100338.91;5006047;28;20293;-67
2022/07/20 02:22:07;;;;;;;3.78;2.55;;;;;;;24.88;35.02;100333.94;5006224;28;20311;-68
2022/07/20 02:24:32;;;;;;;3.80;2.72;;;;;;;24.84;34.60;100340.09;4990143;28;20131;-68
2022/07/20 02:26:58;;;;;;;4.53;2.70;;;;;;;24.81;34.60;100341.41;4988256;28;20032;-67
2022/07/20 02:29:23;;;;;;;3.90;2.22;;;;;;;24.74;34.38;100341.63;5007406;28;20378;-67
2022/07/20 02:31:48;;;;;;;4.47;2.47;;;;;;;24.67;34.67;100337.44;5005874;28;20052;-67
2022/07/20 02:34:14;;;;;;;3.13;2.30;;;;;;;24.63;34.56;100334.44;5005898;28;20175;-68
2022/07/20 02:36:39;;;;;;;2.60;2.08;;;;;;;24.56;35.09;100333.78;5006815;28;20045;-67
2022/07/20 02:39:05;;;;;;;4.05;2.88;;;;;;;24.54;34.94;100333.22;5010096;28;20034;-68
2022/07/20 02:41:30;;;;;;;3.28;2.30;;;;;;;24.52;34.72;100338.88;4993384;28;20069;-67
2022/07/20 02:43:55;;;;;;;3.33;2.33;;;;;;;24.52;35.39;100338.06;5008224;28;20036;-67
2022/07/20 02:46:21;;;;;;;4.68;3.00;;;;;;;24.50;35.71;100340.19;5007169;28;20038;-67
2022/07/20 02:48:46;;;;;;;3.80;2.20;;;;;;;24.48;35.62;100348.56;5008905;28;20065;-67
2022/07/20 02:51:11;;;;;;;4.72;2.47;;;;;;;24.48;35.27;100345.03;5007751;28;20398;-67
2022/07/20 02:53:36;;;;;;;4.80;2.50;;;;;;;24.54;35.31;100355.66;4990785;28;20038;-67
2022/07/20 02:56:02;;;;;;;4.50;3.17;;;;;;;24.58;35.48;100356.81;5008303;28;20745;-68
2022/07/20 02:58:27;;;;;;;4.15;2.97;;;;;;;24.65;35.11;100353.13;5007001;28;20281;-67
2022/07/20 03:00:52;;;;;;;6.28;3.50;;;;;;;24.61;35.54;100347.38;5006633;28;20045;-68
2022/07/20 03:03:18;;;;;;;4.85;2.83;;;;;;;24.66;35.56;100346.63;5005610;28;20129;-66
2022/07/20 03:05:43;;;;;;;6.27;2.83;;;;;;;24.64;35.21;100348.75;5007378;28;20044;-67
2022/07/20 03:08:08;;;;;;;3.30;2.47;;;;;;;24.63;35.26;100345.25;5006497;28;20289;-68
2022/07/20 03:10:34;;;;;;;4.03;2.60;;;;;;;24.69;35.35;100341.53;5006857;28;20084;-67
2022/07/20 03:13:00;;;;;;;5.93;2.55;;;;;;;24.75;35.25;100350.56;5006889;28;20033;-67
2022/07/20 03:15:26;;;;;;;6.85;3.05;;;;;;;24.95;34.84;100347.28;4989849;28;20037;-67
2022/07/20 03:17:53;;;;;;;5.07;2.95;;;;;;;25.42;34.04;100346.78;5008970;28;20038;-67
2022/07/20 03:20:20;;;;;;;5.25;2.95;;;;;;;25.86;33.30;100354.81;5010624;28;20112;-67
2022/07/20 03:22:45;;;;;;;6.05;2.50;;;;;;;26.20;32.61;100354.56;5009279;28;20023;-68
2022/07/20 03:25:10;;;;;;;3.55;2.70;;;;;;;26.57;32.03;100351.81;5010373;28;20069;-67
2022/07/20 03:27:37;;;;;;;6.05;3.15;;;;;;;26.79;31.64;100346.28;5010747;28;20034;-67
2022/07/20 03:30:07;;;;;;;5.30;2.90;;;;;;;26.94;31.23;100350.94;5009655;28;20411;-67
2022/07/20 03:32:32;;;;;;;4.28;3.05;;;;;;;27.05;31.07;100347.19;5005243;28;20030;-68
2022/07/20 03:34:58;;;;;;;4.40;2.70;;;;;;;27.10;30.79;100360.78;5009288;28;20040;-67
2022/07/20 03:37:23;;;;;;;4.70;2.90;;;;;;;27.21;31.08;100353.50;5010139;28;20061;-67
2022/07/20 03:39:49;;;;;;;4.88;2.83;;;;;;;27.24;30.91;100352.97;5010474;28;20072;-67
2022/07/20 03:42:14;;;;;;;3.65;2.35;;;;;;;27.22;30.92;100363.31;5008867;28;20033;-68
2022/07/20 03:44:39;;;;;;;3.60;2.20;;;;;;;27.14;31.09;100358.34;5009902;28;20427;-67
2022/07/20 03:47:05;;;;;;;3.22;2.28;;;;;;;27.01;31.24;100361.56;5008847;28;20289;-67
2022/07/20 03:49:30;;;;;;;5.63;2.50;;;;;;;26.90;31.32;100366.91;5010111;28;20054;-67
2022/07/20 03:51:56;;;;;;;3.93;2.17;;;;;;;26.81;31.62;100365.78;5007552;28;20041;-68
2022/07/20 03:54:21;;;;;;;3.72;2.28;;;;;;;26.75;31.61;100377.72;5007953;28;20431;-68
2022/07/20 03:56:46;;;;;;;3.88;2.55;;;;;;;26.66;31.46;100377.38;5010850;28;20034;-67
2022/07/20 03:59:12;;;;;;;3.30;2.30;;;;;;;26.54;31.86;100378.66;5010536;28;20038;-68
2022/07/20 04:01:38;;;;;;;2.70;1.80;;;;;;;26.40;32.12;100378.28;5009124;28;20301;-68
2022/07/20 04:04:05;;;;;;;2.00;1.50;;;;;;;26.23;32.71;100376.53;5008860;28;20038;-67
2022/07/20 04:06:30;;;;;;;2.60;1.60;;;;;;;26.06;32.89;100370.44;5008758;28;20104;-66
2022/07/20 04:08:56;;;;;;;4.88;2.55;;;;;;;25.93;33.52;100373.56;5008609;28;20034;-66
2022/07/20 04:11:21;;;;;;;3.63;2.50;;;;;;;25.85;33.45;100372.91;5007933;28;20661;-67
2022/07/20 04:13:47;;;;;;;4.82;2.92;;;;;;;25.82;34.05;100367.22;5007346;28;20401;-67
2022/07/20 04:16:12;;;;;;;3.92;2.65;;;;;;;25.80;34.08;100359.34;5008237;28;20049;-67
2022/07/20 04:18:38;;;;;;;5.93;3.03;;;;;;;25.79;34.02;100355.00;5009690;28;20041;-67
2022/07/20 04:21:04;;;;;;;3.90;2.70;;;;;;;25.76;34.12;100362.81;5008377;28;20026;-67
2022/07/20 04:23:29;;;;;;;5.10;2.40;;;;;;;25.66;34.26;100357.31;5009637;28;20037;-68
2022/07/20 04:25:54;;;;;;;5.40;2.42;;;;;;;25.62;34.33;100365.09;5009165;28;20121;-68
2022/07/20 04:28:19;;;;;;;6.80;2.50;;;;;;;25.49;34.77;100363.63;5008662;28;20038;-68
2022/07/20 04:30:45;;;;;;;4.25;2.72;;;;;;;25.61;34.54;100367.00;5008557;28;20273;-68
2022/07/20 04:33:10;;;;;;;4.60;2.57;;;;;;;25.69;34.60;100370.31;5008603;28;20034;-68
2022/07/20 04:35:36;;;;;;;4.22;2.28;;;;;;;25.72;34.57;100372.50;5008618;28;20284;-68
2022/07/20 04:38:01;;;;;;;5.82;2.40;;;;;;;25.77;34.08;100364.47;5007765;28;20699;-68
2022/07/20 04:40:26;;;;;;;3.10;2.30;;;;;;;25.80;34.22;100375.59;5010784;28;20536;-68
2022/07/20 04:42:52;;;;;;;4.65;2.10;;;;;;;25.72;35.01;100381.47;5009431;28;20061;-68
2022/07/20 04:45:17;;;;;;;2.30;1.70;;;;;;;25.67;34.96;100386.84;5008327;28;20037;-68
2022/07/20 04:47:43;;;;;;;4.18;2.05;;;;;;;25.55;35.97;100395.13;5007778;28;20030;-68
2022/07/20 04:50:08;;;;;;;3.28;2.03;;;;;;;25.46;36.40;100396.63;5007959;28;20081;-68
2022/07/20 04:52:34;;;;;;;3.67;1.92;;;;;;;25.41;36.74;100402.81;5008418;28;20037;-68
2022/07/20 04:54:59;;;;;;;4.45;2.03;;;;;;;25.43;36.90;100397.13;5009273;28;20374;-68
2022/07/20 04:57:25;;;;;;;4.85;2.30;;;;;;;25.47;37.06;100400.97;5009104;28;20400;-68
2022/07/20 04:59:50;;;;;;;7.10;2.20;;;;;;;25.50;37.21;100396.94;5007666;28;20037;-68
2022/07/20 05:02:15;;;;;;;5.88;2.25;;;;;;;25.51;37.63;100391.28;5008190;28;20037;-68
2022/07/20 05:04:41;;;;;;;5.13;2.08;;;;;;;25.56;37.53;100385.09;5007804;28;20046;-68
2022/07/20 05:07:06;;;;;;;5.90;2.20;;;;;;;25.59;37.74;100390.81;5008269;28;20045;-68
2022/07/20 05:09:31;;;;;;;9.52;3.38;;;;;;;25.62;37.52;100398.44;5009795;28;20313;-68
2022/07/20 05:11:56;;;;;;;9.20;3.25;;;;;;;25.60;37.58;100389.75;5006759;28;20079;-68
2022/07/20 05:14:22;;;;;;;7.90;3.67;;;;;;;25.61;37.69;100401.41;5004781;28;20494;-68
2022/07/20 05:16:47;;;;;;;6.65;2.83;;;;;;;25.59;37.93;100392.69;5008319;28;20277;-68
2022/07/20 05:19:12;;;;;;;5.65;3.17;;;;;;;25.56;38.25;100396.75;5012491;28;20426;-68
2022/07/20 05:21:38;;;;;;;6.32;3.13;;;;;;;25.49;38.59;100398.03;5010705;28;20663;-68
2022/07/20 05:24:03;;;;;;;6.10;3.30;;;;;;;25.41;39.33;100404.72;5008089;28;20125;-68
2022/07/20 05:26:29;;;;;;;6.15;3.70;;;;;;;25.38;40.59;100403.28;5010648;28;20037;-68
2022/07/20 05:28:54;;;;;;;9.95;3.90;;;;;;;25.37;40.28;100411.69;5008026;28;20030;-68
2022/07/20 05:31:19;;;;;;;6.70;3.28;;;;;;;25.41;40.05;100400.09;5009895;28;20073;-68
2022/07/20 05:33:44;;;;;;;5.57;3.20;;;;;;;25.46;39.88;100410.19;5008033;28;20042;-68
2022/07/20 05:36:10;;;;;;;6.47;3.13;;;;;;;25.51;39.86;100410.22;5007090;28;20065;-68
2022/07/20 05:38:36;;;;;;;8.82;3.50;;;;;;;25.58;39.57;100421.69;5008816;28;20283;-68
2022/07/20 05:41:01;;;;;;;6.65;4.20;;;;;;;25.63;39.65;100420.91;5006924;28;20034;-68
2022/07/20 05:43:27;;;;;;;6.70;3.50;;;;;;;25.71;39.73;100438.59;5006885;28;20034;-68
2022/07/20 05:45:52;;;;;;;6.45;3.20;;;;;;;25.86;39.18;100441.47;5007602;28;20033;-68
2022/07/20 05:48:17;;;;;;;4.88;3.10;;;;;;;26.04;38.97;100446.56;5006443;28;20141;-68
2022/07/20 05:50:44;;;;;;;6.60;2.90;;;;;;;26.38;38.46;100450.91;5008261;28;20525;-68
2022/07/20 05:53:10;;;;;;;4.18;2.42;;;;;;;26.88;37.76;100450.47;5008351;28;20026;-68
2022/07/20 05:55:37;;;;;;;3.53;2.25;;;;;;;27.35;37.32;100448.84;5011787;28;20030;-67
2022/07/20 05:58:04;;;;;;;3.60;2.15;;;;;;;27.86;36.65;100453.66;5008123;28;20045;-68
2022/07/20 06:00:30;;;;;;;3.42;2.22;;;;;;;28.25;36.47;100445.03;5009552;28;20029;-68
2022/07/20 06:02:56;;;;;;;3.67;2.63;;;;;;;28.70;36.00;100457.81;5008370;28;20030;-68
2022/07/20 06:05:21;;;;;;;3.38;2.53;;;;;;;29.20;35.09;100453.34;5008698;28;20084;-69
2022/07/20 06:07:47;;;;;;;4.20;2.40;;;;;;;29.52;34.49;100463.03;5008399;28;20042;-67
2022/07/20 06:10:13;;;;;;;3.35;2.15;;;;;;;29.94;33.60;100464.47;5007300;28;20041;-68
2022/07/20 06:12:38;;;;;;;3.13;2.13;;;;;;;30.36;33.16;100465.00;5006745;28;20465;-67
2022/07/20 06:15:04;;;;;;;5.10;3.00;;;;;;;30.37;32.46;100463.91;5005970;28;20034;-68
2022/07/20 06:17:37;;;;;;;3.80;2.50;;;;;;;30.53;32.59;100461.84;5007744;28;20042;-67
2022/07/20 06:20:09;;;;;;;4.70;2.42;;;;;;;30.93;32.52;100459.84;5021019;22;20042;-67
2022/07/20 06:22:35;;;;;;;3.63;2.58;;;;;;;31.25;31.84;100464.66;4985670;28;20066;-68
2022/07/20 06:25:01;;;;;;;6.10;2.80;;;;;;;31.65;31.31;100468.81;4977682;28;20117;-65
2022/07/20 06:27:26;;;;;;;5.90;2.63;;;;;;;32.13;30.71;100459.66;4979435;28;20114;-65
2022/07/20 06:29:52;;;;;;;3.15;2.00;;;;;;;32.49;30.06;100456.31;4989703;28;20394;-65
2022/07/20 06:32:17;;;;;;;2.43;1.77;;;;;;;33.01;29.10;100462.53;4990264;28;20419;-65
2022/07/20 06:34:43;;;;;;;4.38;2.70;;;;;;;33.06;28.88;100465.22;4996343;28;20784;-66
2022/07/20 06:37:08;;;;;;;3.15;2.40;;;;;;;33.20;29.10;100466.03;4997723;28;20042;-66
2022/07/20 06:39:34;;;;;;;3.23;2.20;;;;;;;34.07;28.33;100462.50;4981087;28;20414;-66
2022/07/20 06:41:59;;;;;;;4.60;2.20;;;;;;;34.63;27.80;100467.41;4990822;28;20424;-66
2022/07/20 06:44:24;;;;;;;5.55;2.50;;;;;;;34.70;27.82;100466.97;4991918;28;20502;-66
2022/07/20 06:46:50;;;;;;;4.18;2.15;;;;;;;34.94;27.44;100463.84;4994128;28;20039;-66
2022/07/20 06:49:15;;;;;;;3.55;2.55;;;;;;;35.03;27.17;100452.91;4994700;28;20152;-66
2022/07/20 06:51:40;;;;;;;7.72;3.10;;;;;;;34.72;26.25;100456.50;5000049;28;20465;-66
2022/07/20 06:54:05;;;;;;;5.20;2.40;;;;;;;34.71;27.14;100454.03;4996728;28;20095;-66
2022/07/20 06:56:31;;;;;;;4.97;2.40;;;;;;;35.22;25.70;100458.16;4996726;28;20837;-66
2022/07/20 06:58:56;;;;;;;3.27;2.00;;;;;;;35.46;25.30;100453.03;4999406;28;20432;-66
2022/07/20 07:01:21;;;;;;;7.03;2.37;;;;;;;35.28;25.66;100451.41;4997939;28;20426;-66
2022/07/20 07:03:47;;;;;;;3.05;2.15;;;;;;;35.51;25.85;100458.38;4999858;28;20371;-66
2022/07/20 07:06:12;;;;;;;3.78;2.15;;;;;;;35.65;26.15;100454.69;4998523;28;20116;-67
2022/07/20 07:08:37;;;;;;;4.40;2.27;;;;;;;35.66;25.66;100456.31;5000710;28;20042;-66
2022/07/20 07:11:03;;;;;;;3.38;2.20;;;;;;;35.76;25.39;100457.97;5000566;28;20330;-66
2022/07/20 07:13:28;;;;;;;2.38;1.70;;;;;;;35.88;25.28;100464.41;5003664;28;20494;-66
2022/07/20 07:15:53;;;;;;;3.87;2.30;;;;;;;36.14;25.17;100469.94;5000962;28;20643;-66
2022/07/20 07:18:19;;;;;;;3.53;2.30;;;;;;;36.20;24.72;100465.06;4995983;28;20293;-66
2022/07/20 07:20:44;;;;;;;3.67;2.07;;;;;;;36.30;24.75;100463.91;4997187;28;20046;-66
2022/07/20 07:23:10;;;;;;;3.07;2.33;;;;;;;36.42;24.43;100466.81;4994534;28;20789;-66
2022/07/20 07:25:36;;;;;;;5.72;2.10;;;;;;;36.30;24.37;100470.25;4996303;28;20298;-66
2022/07/20 07:28:01;;;;;;;4.97;2.50;;;;;;;36.29;24.40;100468.63;5005168;28;20026;-66
2022/07/20 07:30:26;;;;;;;3.67;2.10;;;;;;;36.39;24.00;100456.44;5000673;28;20091;-66
2022/07/20 07:32:52;;;;;;;4.35;2.50;;;;;;;36.71;23.56;100463.34;4998018;28;20046;-66
2022/07/20 07:35:17;;;;;;;3.40;2.13;;;;;;;36.88;23.28;100461.69;4997923;28;20050;-66
2022/07/20 07:37:42;;;;;;;3.45;2.08;;;;;;;37.14;22.59;100456.06;5003931;28;20514;-66
2022/07/20 07:40:08;;;;;;;4.30;2.30;;;;;;;37.39;22.18;100457.84;4993810;28;20034;-67
2022/07/20 07:42:34;;;;;;;2.85;1.83;;;;;;;37.72;22.09;100459.91;4995329;28;20093;-66
2022/07/20 07:45:04;;;;;;;;;;;;;;;37.89;21.93;100464.47;4996277;28;20026;-66
2022/07/20 07:47:30;;;;;;;2.95;1.92;;;;;;;38.32;21.56;100465.25;4992270;28;19924;-66
2022/07/20 07:49:56;;;;;;;3.15;2.03;;;;;;;38.85;21.03;100463.50;4999429;28;20427;-66
2022/07/20 07:52:21;;;;;;;6.33;2.53;;;;;;;39.01;20.82;100461.69;4996285;28;21656;-66
2022/07/20 07:54:46;;;;;;;4.68;1.98;;;;;;;39.20;21.27;100469.41;4998282;28;20839;-66
2022/07/20 07:57:12;;;;;;;;;;;;;;;39.35;20.58;100473.41;5000370;28;20038;-66
2022/07/20 07:59:37;;;;;;;;;;;;;;;39.56;20.23;100472.50;5000304;28;19926;-66
2022/07/20 08:02:02;;;;;;;3.80;2.10;;;;;;;39.67;20.11;100468.91;4992372;28;19921;-66
2022/07/20 08:04:28;;;;;;;5.57;2.53;;;;;;;40.01;19.74;100477.00;4991868;28;20046;-66
2022/07/20 08:06:53;;;;;;;7.43;2.67;;;;;;;40.11;19.18;100473.72;4996398;28;20038;-66
2022/07/20 08:09:19;;;;;;;6.18;2.72;;;;;;;40.07;19.01;100470.84;4995367;28;20293;-66
2022/07/20 08:11:44;;;;;;;8.48;2.70;;;;;;;40.00;18.63;100473.44;5001427;28;20087;-66
2022/07/20 08:14:10;;;;;;;5.88;2.95;;;;;;;40.22;19.01;100477.59;4999504;28;20042;-66
2022/07/20 08:16:35;;;;;;;6.70;2.83;;;;;;;40.67;18.13;100478.41;4994644;28;20066;-65
2022/07/20 08:19:00;;;;;;;7.47;3.10;;;;;;;40.89;18.18;100474.22;4999931;28;20528;-66
2022/07/20 08:21:26;;;;;;;5.13;2.50;;;;;;;41.10;18.35;100469.19;4996169;28;20133;-65
2022/07/20 08:23:51;;;;;;;4.43;2.20;;;;;;;41.24;17.96;100456.81;4998858;28;20057;-66
2022/07/20 08:26:16;;;;;;;4.72;2.10;;;;;;;41.68;17.78;100460.19;4993345;28;20088;-66
2022/07/20 08:28:42;;;;;;;3.83;2.30;;;;;;;42.04;17.63;100460.13;4999805;28;20633;-65
2022/07/20 08:31:07;;;;;;;7.33;2.47;;;;;;;42.21;17.39;100463.22;4995688;28;20326;-66
2022/07/20 08:33:32;;;;;;;4.93;2.30;;;;;;;42.59;16.98;100464.31;4998488;28;20543;-66
2022/07/20 08:35:58;;;;;;;4.68;2.30;;;;;;;43.06;17.25;100468.69;4997396;28;20301;-66
2022/07/20 08:38:23;;;;;;;3.92;2.03;;;;;;;43.52;17.02;100467.75;4986760;28;20038;-66
2022/07/20 08:40:48;;;;;;;8.90;2.87;;;;;;;43.53;16.37;100466.59;4998164;28;20041;-66
2022/07/20 08:43:15;;;;;;;5.50;2.15;;;;;;;43.57;16.22;100470.22;4998847;28;20789;-66
2022/07/20 08:45:42;;;;;;;3.75;2.30;;;;;;;43.68;15.99;100471.19;4996548;28;20057;-66
2022/07/20 08:48:11;;;;;;;5.90;2.40;;;;;;;43.98;15.93;100473.13;5003411;28;20029;-67
2022/07/20 08:50:36;;;;;;;3.70;1.90;;;;;;;44.44;15.82;100477.63;4993977;28;20039;-66
2022/07/20 08:53:02;;;;;;;3.80;2.35;;;;;;;44.78;14.91;100483.91;4997024;28;20048;-66
2022/07/20 08:55:28;;;;;;;3.15;2.10;;;;;;;44.93;15.27;100480.06;4997031;28;20514;-66
2022/07/20 08:57:54;;;;;;;3.63;2.40;;;;;;;44.93;14.90;100480.06;5001887;28;20088;-66
2022/07/20 09:00:19;;;;;;;4.33;2.60;;;;;;;45.35;14.69;100480.75;4995088;28;20539;-66
2022/07/20 09:02:56;;;;;;;7.90;2.78;;;;;;;45.55;14.10;100486.81;4998872;28;20276;-66
2022/07/20 09:05:23;;;;;;;5.47;2.30;;;;;;;45.56;14.26;100486.44;4994343;28;20496;-66
2022/07/20 09:07:50;;;;;;;4.00;2.67;;;;;;;45.54;14.27;100482.44;5003106;28;20044;-66
2022/07/20 09:10:22;;;;;;;3.42;2.50;;;;;;;45.71;13.84;100492.91;4997907;28;20088;-66
2022/07/20 09:13:13;;;;;;;4.47;2.58;;;;;;;45.87;13.39;100491.78;4995637;28;20129;-66
2022/07/20 09:15:45;;;;;;;6.28;3.00;;;;;;;46.08;13.20;100497.47;4996116;28;20147;-66
2022/07/20 09:18:21;;;;;;;4.80;3.00;;;;;;;46.06;12.59;100491.47;4996935;28;20077;-65
2022/07/20 09:21:07;;;;;;;7.38;3.13;;;;;;;45.85;13.02;100502.53;5000504;28;20049;-66
2022/07/20 09:23:41;;;;;;;4.53;2.60;;;;;;;46.21;12.82;100502.69;4996219;28;20057;-66
2022/07/20 09:26:17;;;;;;;5.15;2.85;;;;;;;46.40;12.74;100494.72;4994553;28;20034;-66
2022/07/20 09:28:51;;;;;;;6.05;2.88;;;;;;;46.38;12.89;100490.75;4991081;28;20129;-66
2022/07/20 09:31:28;;;;;;;5.60;2.53;;;;;;;46.50;12.54;100489.56;4987926;28;20129;-66
2022/07/20 09:33:58;;;;;;;4.47;2.85;;;;;;;46.58;12.81;100499.56;4996984;28;20064;-66
2022/07/20 09:36:27;;;;;;;4.05;2.60;;;;;;;46.66;12.42;100500.34;4994872;28;20042;-66
2022/07/20 09:38:52;;;;;;;3.10;2.30;;;;;;;46.79;12.72;100491.19;4995139;28;20086;-67
2022/07/20 09:41:22;;;;;;;4.20;2.53;;;;;;;46.95;12.35;100504.75;4990140;28;20042;-66
2022/07/20 09:43:48;;;;;;;6.07;2.63;;;;;;;47.11;12.38;100506.38;5001778;28;20396;-66
2022/07/20 09:46:16;;;;;;;6.10;2.70;;;;;;;47.61;11.82;100497.84;4992110;28;20612;-66
2022/07/20 09:48:46;;;;;;;4.22;2.45;;;;;;;47.83;12.13;100490.13;4992448;28;20049;-67
2022/07/20 09:51:23;;;;;;;3.20;2.17;;;;;;;48.04;12.32;100494.84;4989989;28;20042;-66
2022/07/20 09:53:50;;;;;;;5.93;2.50;;;;;;;48.48;11.99;100487.75;4996096;28;21034;-67
2022/07/20 09:56:17;;;;;;;4.13;2.30;;;;;;;48.75;11.51;100492.75;4991007;28;20041;-67
2022/07/20 09:58:45;;;;;;;4.32;2.20;;;;;;;49.00;11.69;100484.13;4993571;28;20031;-66
2022/07/20 10:01:14;;;;;;;4.78;2.65;;;;;;;49.24;11.44;100482.28;4989582;28;20053;-67
2022/07/20 10:03:41;;;;;;;4.87;2.50;;;;;;;49.25;11.19;100486.66;4991136;28;20034;-66
2022/07/20 10:06:06;;;;;;;5.05;2.28;;;;;;;49.51;11.09;100487.97;4996703;28;20319;-68
2022/07/20 10:08:32;;;;;;;3.30;2.20;;;;;;;49.78;11.08;100485.25;4997793;28;20089;-66
2022/07/20 10:10:57;;;;;;;4.57;3.05;;;;;;;49.57;10.82;100486.31;4999798;28;20030;-66
2022/07/20 10:13:23;;;;;;;4.10;2.72;;;;;;;49.42;10.67;100488.50;4974827;28;20049;-66
2022/07/20 10:15:56;;;;;;;5.38;2.67;;;;;;;49.18;11.02;100473.50;4995505;28;20116;-66
2022/07/20 10:18:22;;;;;;;3.65;2.33;;;;;;;49.46;10.91;100469.56;4996284;28;20034;-66
2022/07/20 10:20:49;;;;;;;3.95;2.75;;;;;;;49.93;11.23;100464.16;4995341;28;20034;-67
2022/07/20 10:23:14;;;;;;;5.50;2.58;;;;;;;50.12;11.23;100470.34;4990399;28;20182;-67
2022/07/20 10:25:42;;;;;;;3.83;1.93;;;;;;;50.52;10.78;100471.31;4991021;28;20076;-67
2022/07/20 10:28:36;;;;;;;3.53;2.40;;;;;;;50.78;10.47;100466.06;4990987;28;20027;-66
2022/07/20 10:31:08;;;;;;;5.80;3.15;;;;;;;50.93;10.19;100472.22;4990979;28;20034;-66
2022/07/20 10:33:36;;;;;;;3.90;2.58;;;;;;;50.81;10.33;100465.19;4992521;28;20645;-66
2022/07/20 10:39:38;;;;;;;7.90;2.80;;;;;;;50.65;10.06;100463.03;5015851;28;20076;-66
2022/07/20 10:42:21;;;;;;;7.88;2.95;;;;;;;51.32;9.95;100468.63;5002023;28;20041;-66
2022/07/20 10:44:46;;;;;;;3.97;2.45;;;;;;;51.53;9.65;100467.44;5021288;28;20046;-66
2022/07/20 10:47:48;;;;;;;4.63;2.50;;;;;;;51.76;9.68;100468.59;5021451;28;20040;-66
2022/07/20 10:50:19;;;;;;;2.60;2.10;;;;;;;52.21;9.15;100465.91;5015666;28;20500;-67
2022/07/20 10:52:46;;;;;;;6.93;3.30;;;;;;;51.76;8.82;100468.59;5024531;28;20041;-67
2022/07/20 10:55:37;;;;;;;4.20;2.65;;;;;;;51.01;9.61;100470.06;5021808;28;20288;-66
2022/07/20 10:58:16;;;;;;;4.00;2.58;;;;;;;51.48;9.40;100461.53;5009965;28;20095;-66
2022/07/20 11:00:42;;;;;;;2.47;2.25;;;;;;;52.12;9.11;100464.94;5018439;28;20096;-66
2022/07/20 11:03:21;;;;;;;4.97;2.50;;;;;;;52.59;8.50;100462.56;5019751;28;20486;-66
2022/07/20 11:05:58;;;;;;;5.43;2.97;;;;;;;52.40;8.41;100452.97;5020356;28;20052;-67
2022/07/20 11:08:23;;;;;;;5.30;2.72;;;;;;;52.46;8.21;100452.44;5010235;28;20037;-66
2022/07/20 11:10:48;;;;;;;5.17;2.87;;;;;;;52.30;8.41;100447.56;5016737;28;20429;-66
2022/07/20 11:13:13;;;;;;;4.15;2.40;;;;;;;52.92;8.39;100444.75;5024531;28;20800;-66
2022/07/20 11:15:49;;;;;;;5.43;2.80;;;;;;;52.61;8.50;100439.53;5019334;28;20041;-66
2022/07/20 11:18:26;;;;;;;3.28;2.65;;;;;;;52.67;8.30;100443.41;5022957;28;20389;-66
2022/07/20 11:21:01;;;;;;;8.30;3.72;;;;;;;52.26;8.12;100436.38;5019863;28;20041;-66
2022/07/20 11:23:37;;;;;;;7.20;2.90;;;;;;;51.23;8.85;100442.28;5016066;28;20089;-66
2022/07/20 11:26:02;;;;;;;4.75;3.00;;;;;;;51.88;8.88;100445.34;5011044;28;20144;-65
2022/07/20 11:28:29;;;;;;;8.30;3.10;;;;;;;52.37;8.79;100439.69;5016653;28;20038;-66
2022/07/20 11:30:56;;;;;;;11.35;3.47;;;;;;;52.77;8.44;100442.34;5020901;28;20080;-66